ROTAER D-AMDT 23/20 Ver Mudanças

Estadual Arthur Siqueira ( SBBP ) / BRAGANÇA PAULISTA, SP 22 58 45S/046 32 15W
AD PUB VOA SÃO PAULO 3S UTC-3 VFR L21 , L26 893 (2930)

16 - L12 - ( 1200x30 ASPH 16/F/B/X/T L14 , L15 ) - L12 - 34

SBBS (SRPV-SP)
COM -
RÁDIO [5] 125.700 [1]
RDONAV -
VOR/DME BGC 116.2 2257.09S/04634.19W
CMB- [2] [3] PF TF
MET -

[4] [5]

AIS - [4] [5] [6]

RMK -

REGULAMENTOS PARA TRÁFEGO LOCAL
  1. Todas ACFT que pretendem realizar FLT TGL deverão efetuar COOR prévia com a RDO Bragança via tel (11) 4034-7612, LTD a cinco ACFT simultaneamente no circuito de TFC.
  2. OBS ACFT em voo de instrução próximo ao AD
INFORMAÇÃO ADICIONAL
  1. HR SER SR/2200. Demais HR O/R através do TEL: (11) 4034 -7610 (VOA São Paulo)
COMPL -
  • [1] LTD para raio 3NM FM centro AD SFC/4500FT AMSL
  • [2] (MON,TUE,WED,THU,FRI 1000-2200)
  • [3] (SAT,SUN 1000-2100)
  • [4] Autoatendimento
  • [5] (DLY 1015-2145)
  • [6] Para informações adicionais consultar a sala AIS SBGR TEL: (11) 2445-3185 e (11) 2445-3212.
TEMP (1)
INFOTEMP SP1083R/20
SER COMBUSTIVEL AVGAS NEG AVBL

Duração: 12/07/20 16:47 a 17/07/20 21:00 UTC | Divulgação: 12/07/2020 16:47


Suplementos AIP (0)

NOTAM (0)

Nascer/Por do Sol

09:46

20:37


METAR

TAF

130209Z 1306/1318 04005KT CAVOK TN15/1309Z TX28/1317Z BECMG 1313/1315 33010KT FEW040 RMK PGD=


Cartas (1)

VAC



Rotas Preferenciais (0)